createdAt,value
2019-02-27T00:01:49.942Z,0.50
2019-02-27T00:04:20.952Z,0.60
2019-02-27T00:06:51.377Z,0.60
2019-02-27T00:09:21.915Z,0.70
2019-02-27T00:11:52.450Z,0.60
2019-02-27T00:14:23.568Z,0.63
2019-02-27T00:16:53.986Z,0.50
2019-02-27T00:19:24.631Z,0.60
2019-02-27T00:21:55.288Z,0.50
2019-02-27T00:24:29.632Z,0.57
2019-02-27T00:26:57.976Z,0.50
2019-02-27T00:29:29.064Z,5.70
2019-02-27T00:32:01.104Z,2.00
2019-02-27T00:34:33.095Z,0.77
2019-02-27T00:37:03.747Z,0.67
2019-02-27T00:39:34.404Z,0.60
2019-02-27T00:42:04.868Z,0.80
2019-02-27T00:44:35.293Z,0.60
2019-02-27T00:47:05.734Z,0.77
2019-02-27T00:49:36.394Z,0.83
2019-02-27T00:52:06.986Z,0.60
2019-02-27T00:54:37.436Z,0.80
2019-02-27T00:57:07.843Z,3.50
2019-02-27T00:59:38.279Z,0.63
2019-02-27T01:02:08.696Z,0.60
2019-02-27T01:04:39.132Z,0.70
2019-02-27T01:07:09.596Z,0.80
2019-02-27T01:09:40.090Z,0.77
2019-02-27T01:12:10.477Z,0.80
2019-02-27T01:14:40.916Z,0.80
2019-02-27T01:17:11.326Z,0.70
2019-02-27T01:19:42.925Z,0.70
2019-02-27T01:22:13.549Z,0.90
2019-02-27T01:24:43.973Z,0.90
2019-02-27T01:27:14.624Z,1.00
2019-02-27T01:29:45.060Z,2.33
2019-02-27T01:32:15.497Z,0.70
2019-02-27T01:34:45.927Z,0.90
2019-02-27T01:37:16.377Z,1.27
2019-02-27T01:39:46.826Z,1.37
2019-02-27T01:42:17.228Z,0.97
2019-02-27T01:44:47.674Z,3.13
2019-02-27T01:47:18.094Z,0.93
2019-02-27T01:49:49.123Z,1.47
2019-02-27T01:52:20.245Z,0.93
2019-02-27T01:54:50.684Z,2.13
2019-02-27T01:57:21.133Z,1.10
2019-02-27T01:59:51.710Z,1.70
2019-02-27T02:02:22.131Z,2.33
2019-02-27T02:04:53.770Z,1.00
2019-02-27T02:07:24.316Z,1.33
2019-02-27T02:09:55.841Z,1.30
2019-02-27T02:12:30.750Z,5.10
2019-02-27T02:15:58.120Z,1.23
2019-02-27T02:19:44.466Z,1.17
2019-02-27T02:23:14.004Z,1.40
2019-02-27T02:26:32.136Z,3.03
2019-02-27T02:30:06.501Z,1.50
2019-02-27T02:33:21.343Z,1.23
2019-02-27T02:36:26.418Z,1.67
2019-02-27T02:39:58.848Z,3.10
2019-02-27T02:43:43.415Z,1.20
2019-02-27T02:46:29.573Z,2.60
2019-02-27T02:50:06.895Z,1.80
2019-02-27T02:53:42.116Z,0.93
2019-02-27T02:56:43.759Z,1.43
2019-02-27T03:00:16.237Z,1.00
2019-02-27T03:03:20.246Z,4.07
2019-02-27T03:07:21.289Z,2.03
2019-02-27T03:10:21.877Z,1.40
2019-02-27T03:13:57.334Z,2.00
2019-02-27T03:17:53.768Z,1.50
2019-02-27T03:21:41.361Z,1.03
2019-02-27T03:24:54.992Z,2.23
2019-02-27T03:28:41.712Z,2.10
2019-02-27T03:31:42.023Z,1.33
2019-02-27T03:34:51.713Z,3.20
2019-02-27T03:37:51.216Z,1.50
2019-02-27T03:41:36.057Z,1.83
2019-02-27T03:45:02.900Z,6.43
2019-02-27T03:47:52.174Z,2.20
2019-02-27T03:51:24.708Z,2.10
2019-02-27T03:54:39.117Z,2.20
2019-02-27T03:58:05.122Z,3.17
2019-02-27T04:01:45.029Z,1.40
2019-02-27T04:05:05.401Z,2.10
2019-02-27T04:08:13.608Z,1.30
2019-02-27T04:10:44.075Z,2.40
2019-02-27T04:13:14.504Z,3.53
2019-02-27T04:15:45.012Z,2.27
2019-02-27T04:18:13.061Z,1.97
2019-02-27T04:20:49.743Z,3.90
2019-02-27T04:23:15.645Z,3.03
2019-02-27T04:25:46.077Z,2.43
2019-02-27T04:28:16.477Z,1.53
2019-02-27T04:30:51.084Z,3.77
2019-02-27T04:33:22.947Z,2.40
2019-02-27T04:35:51.194Z,2.80
2019-02-27T04:38:21.638Z,2.47
2019-02-27T04:40:52.088Z,2.10
2019-02-27T04:43:22.473Z,2.67
2019-02-27T04:45:52.907Z,3.03
2019-02-27T04:48:23.347Z,3.90
2019-02-27T04:50:53.774Z,1.57
2019-02-27T04:53:24.269Z,2.17
2019-02-27T04:55:54.681Z,3.27
2019-02-27T04:58:25.083Z,2.07
2019-02-27T05:00:58.929Z,2.10
2019-02-27T05:03:28.522Z,2.00
2019-02-27T05:05:59.048Z,3.10
2019-02-27T05:08:29.479Z,2.17
2019-02-27T05:10:59.939Z,6.93
2019-02-27T05:13:30.397Z,1.50
2019-02-27T05:16:00.837Z,2.20
2019-02-27T05:18:31.267Z,3.07
2019-02-27T05:21:01.815Z,2.00
2019-02-27T05:23:33.431Z,2.97
2019-02-27T05:26:04.643Z,2.20
2019-02-27T05:28:35.621Z,3.43
2019-02-27T05:31:06.095Z,2.87
2019-02-27T05:33:39.574Z,2.83
2019-02-27T05:36:08.657Z,2.93
2019-02-27T05:38:41.015Z,6.33
2019-02-27T05:41:11.204Z,3.17
2019-02-27T05:43:41.602Z,2.03
2019-02-27T05:46:12.185Z,3.30
2019-02-27T05:48:42.611Z,1.70
2019-02-27T05:51:13.157Z,1.97
2019-02-27T05:53:43.572Z,2.43
2019-02-27T05:56:16.255Z,5.60
2019-02-27T05:58:46.147Z,2.90
2019-02-27T06:01:16.584Z,1.80
2019-02-27T06:03:49.453Z,2.23
2019-02-27T06:06:19.413Z,2.93
2019-02-27T06:08:49.844Z,2.70
2019-02-27T06:11:20.315Z,1.10
2019-02-27T06:13:50.752Z,2.30
2019-02-27T06:16:21.526Z,2.40
2019-02-27T06:18:55.995Z,2.27
2019-02-27T06:21:24.133Z,2.00
2019-02-27T06:23:54.532Z,2.07
2019-02-27T06:26:24.961Z,4.97
2019-02-27T06:28:55.405Z,2.07
2019-02-27T06:31:26.146Z,3.27
2019-02-27T06:33:56.575Z,3.30
2019-02-27T06:36:27.964Z,12.70
2019-02-27T06:39:00.333Z,5.63
2019-02-27T06:41:30.576Z,2.40
2019-02-27T06:44:01.498Z,2.40
2019-02-27T06:46:32.926Z,2.83
2019-02-27T06:49:03.521Z,2.07
2019-02-27T06:51:35.880Z,4.37
2019-02-27T06:54:06.133Z,3.13
2019-02-27T06:56:36.547Z,3.10
2019-02-27T06:59:06.951Z,3.30
2019-02-27T07:01:37.371Z,2.93
2019-02-27T07:04:08.260Z,3.00
2019-02-27T07:06:38.820Z,8.10
2019-02-27T07:09:11.617Z,3.20
2019-02-27T07:11:44.905Z,4.00
2019-02-27T07:14:13.602Z,2.80
2019-02-27T07:16:44.028Z,5.83
2019-02-27T07:19:15.879Z,2.70
2019-02-27T07:21:46.615Z,2.90
2019-02-27T07:24:17.018Z,7.57
2019-02-27T07:26:50.237Z,3.90
2019-02-27T07:29:21.879Z,3.13
2019-02-27T07:31:52.708Z,4.37
2019-02-27T07:34:23.692Z,2.87
2019-02-27T07:36:54.114Z,5.20
2019-02-27T07:39:24.545Z,3.73
2019-02-27T07:41:55.173Z,4.90
2019-02-27T07:44:25.889Z,4.70
2019-02-27T07:46:57.484Z,2.57
2019-02-27T07:49:30.939Z,6.13
2019-02-27T07:52:00.795Z,4.20
2019-02-27T07:54:31.267Z,3.97
2019-02-27T07:57:01.662Z,3.50
2019-02-27T07:59:32.091Z,4.93
2019-02-27T08:02:03.180Z,4.53
2019-02-27T08:04:33.651Z,8.90
2019-02-27T08:07:04.162Z,11.67
2019-02-27T08:09:34.602Z,9.60
2019-02-27T08:12:05.088Z,6.80
2019-02-27T08:14:37.332Z,7.10
2019-02-27T08:17:17.250Z,7.00
2019-02-27T08:19:40.039Z,4.87
2019-02-27T08:22:10.532Z,11.00
2019-02-27T08:24:41.122Z,5.10
2019-02-27T08:27:11.532Z,4.23
2019-02-27T08:29:42.019Z,7.70
2019-02-27T08:32:12.467Z,15.80
2019-02-27T08:34:42.886Z,3.70
2019-02-27T08:37:13.611Z,4.37
2019-02-27T08:39:44.203Z,10.07
2019-02-27T08:42:15.787Z,6.10
2019-02-27T08:44:46.662Z,4.03
2019-02-27T08:47:17.114Z,6.23
2019-02-27T08:49:47.507Z,8.13
2019-02-27T08:52:18.018Z,3.97
2019-02-27T08:54:48.455Z,9.53
2019-02-27T08:57:18.884Z,7.83
2019-02-27T08:59:49.303Z,7.40
2019-02-27T09:02:19.979Z,7.03
2019-02-27T09:04:50.428Z,4.90
2019-02-27T09:07:20.887Z,5.00
2019-02-27T09:09:52.277Z,7.60
2019-02-27T09:12:22.881Z,7.83
2019-02-27T09:14:55.841Z,7.13
2019-02-27T09:17:27.382Z,5.27
2019-02-27T09:19:57.975Z,5.27
2019-02-27T09:22:28.441Z,6.27
2019-02-27T09:24:59.201Z,4.53
2019-02-27T09:27:29.756Z,4.00
2019-02-27T09:30:02.694Z,6.23
2019-02-27T09:32:33.404Z,4.87
2019-02-27T09:35:04.085Z,6.83
2019-02-27T09:37:34.511Z,5.67
2019-02-27T09:40:06.055Z,7.13
2019-02-27T09:42:36.533Z,8.90
2019-02-27T09:45:16.783Z,6.20
2019-02-27T09:47:47.815Z,7.37
2019-02-27T09:50:27.792Z,17.80
2019-02-27T09:53:01.049Z,7.73
2019-02-27T09:55:30.377Z,11.33
2019-02-27T09:58:00.815Z,12.93
2019-02-27T10:00:40.267Z,12.83
2019-02-27T10:03:10.736Z,10.77
2019-02-27T10:05:41.231Z,10.90
2019-02-27T10:08:12.707Z,9.17
2019-02-27T10:10:45.840Z,10.40
2019-02-27T10:13:15.519Z,11.20
2019-02-27T10:15:45.942Z,10.97
2019-02-27T10:18:19.012Z,10.73
2019-02-27T10:20:48.541Z,9.67
2019-02-27T10:23:18.985Z,13.80
2019-02-27T10:25:50.023Z,10.33
2019-02-27T10:28:20.835Z,10.00
2019-02-27T10:30:51.297Z,9.67
2019-02-27T10:33:21.768Z,9.20
2019-02-27T10:35:52.403Z,9.17
2019-02-27T10:38:22.894Z,6.93
2019-02-27T10:40:53.288Z,8.83
2019-02-27T10:43:24.329Z,8.63
2019-02-27T10:45:54.843Z,7.73
2019-02-27T10:48:25.312Z,7.33
2019-02-27T10:50:55.799Z,7.57
2019-02-27T10:53:27.440Z,7.70
2019-02-27T10:55:58.426Z,10.47
2019-02-27T10:58:29.139Z,8.10
2019-02-27T11:01:01.202Z,8.37
2019-02-27T11:03:31.965Z,7.23
2019-02-27T11:06:02.407Z,10.07
2019-02-27T11:08:32.873Z,7.53
2019-02-27T11:11:03.300Z,8.77
2019-02-27T11:13:33.844Z,7.37
2019-02-27T11:16:04.311Z,11.30
2019-02-27T11:18:34.847Z,12.07
2019-02-27T11:21:05.394Z,10.53
2019-02-27T11:23:35.922Z,10.93
2019-02-27T11:26:06.431Z,12.63
2019-02-27T11:28:37.164Z,12.10
2019-02-27T11:31:08.420Z,9.57
2019-02-27T11:33:40.529Z,8.97
2019-02-27T11:36:11.016Z,11.20
2019-02-27T11:38:41.646Z,13.50
2019-02-27T11:41:14.989Z,9.93
2019-02-27T11:43:44.662Z,12.63
2019-02-27T11:46:15.076Z,7.40
2019-02-27T11:48:45.567Z,12.20
2019-02-27T11:51:17.558Z,10.90
2019-02-27T11:53:48.392Z,8.57
2019-02-27T11:56:20.306Z,11.47
2019-02-27T11:58:51.101Z,13.13
2019-02-27T12:01:22.127Z,10.07
2019-02-27T12:03:53.210Z,11.77
2019-02-27T12:06:24.020Z,14.93
2019-02-27T12:08:54.445Z,10.33
2019-02-27T12:11:24.903Z,12.80
2019-02-27T12:13:55.347Z,15.57
2019-02-27T12:16:25.784Z,19.93
2019-02-27T12:18:56.253Z,17.17
2019-02-27T12:21:26.752Z,20.30
2019-02-27T12:23:57.503Z,28.23
2019-02-27T12:26:28.123Z,22.10
2019-02-27T12:28:58.613Z,20.53
2019-02-27T12:31:29.887Z,17.27
2019-02-27T12:34:03.268Z,28.30
2019-02-27T12:36:34.633Z,18.30
2019-02-27T12:39:06.742Z,17.23
2019-02-27T12:41:37.401Z,18.70
2019-02-27T12:44:07.848Z,18.50
2019-02-27T12:46:38.250Z,21.33
2019-02-27T12:49:08.689Z,24.13
2019-02-27T12:51:39.152Z,25.70
2019-02-27T12:54:09.548Z,19.93
2019-02-27T12:56:43.212Z,21.93
2019-02-27T12:59:12.235Z,21.30
2019-02-27T13:01:42.677Z,24.67
2019-02-27T13:04:16.120Z,22.17
2019-02-27T13:06:45.713Z,17.30
2019-02-27T13:09:16.180Z,19.17
2019-02-27T13:11:46.748Z,19.90
2019-02-27T13:14:17.210Z,19.43
2019-02-27T13:16:49.555Z,19.17
2019-02-27T13:19:19.983Z,16.93
2019-02-27T13:21:52.268Z,20.67
2019-02-27T13:24:22.648Z,25.67
2019-02-27T13:26:53.102Z,17.53
2019-02-27T13:29:23.569Z,28.27
2019-02-27T13:31:54.171Z,21.53
2019-02-27T13:34:24.674Z,17.93
2019-02-27T13:36:55.241Z,20.40
2019-02-27T13:39:26.331Z,19.70
2019-02-27T13:41:56.908Z,15.87
2019-02-27T13:44:27.539Z,15.17
2019-02-27T13:46:58.019Z,18.40
2019-02-27T13:49:28.576Z,22.97
2019-02-27T13:51:58.993Z,21.23
2019-02-27T13:54:29.413Z,18.87
2019-02-27T13:56:59.914Z,21.77
2019-02-27T13:59:30.367Z,24.77
2019-02-27T14:02:04.121Z,22.90
2019-02-27T14:04:33.043Z,23.33
2019-02-27T14:07:03.553Z,21.77
2019-02-27T14:09:33.943Z,21.70
2019-02-27T14:12:04.404Z,19.13
2019-02-27T14:14:34.923Z,22.40
2019-02-27T14:17:07.665Z,18.97
2019-02-27T14:19:37.539Z,17.07
2019-02-27T14:22:08.211Z,22.43
2019-02-27T14:24:39.941Z,22.17
2019-02-27T14:27:12.028Z,24.87
2019-02-27T14:29:42.602Z,23.23
2019-02-27T14:32:14.440Z,21.63
2019-02-27T14:34:45.317Z,18.80
2019-02-27T14:37:16.512Z,19.90
2019-02-27T14:39:47.893Z,20.70
2019-02-27T14:42:20.545Z,29.20
2019-02-27T14:44:50.670Z,25.53
2019-02-27T14:47:21.103Z,21.17
2019-02-27T14:49:51.557Z,16.90
2019-02-27T14:52:22.227Z,23.80
2019-02-27T14:54:52.665Z,16.03
2019-02-27T14:57:23.212Z,20.13
2019-02-27T14:59:53.682Z,19.93
2019-02-27T15:02:24.314Z,14.87
2019-02-27T15:04:54.765Z,17.53
2019-02-27T15:07:25.190Z,23.43
2019-02-27T15:09:57.047Z,32.73
2019-02-27T15:12:27.755Z,17.33
2019-02-27T15:14:59.000Z,20.10
2019-02-27T15:17:30.340Z,17.17
2019-02-27T15:20:04.815Z,12.87
2019-02-27T15:22:33.651Z,17.20
2019-02-27T15:25:07.876Z,18.57
2019-02-27T15:27:36.750Z,21.80
2019-02-27T15:30:12.871Z,13.97
2019-02-27T15:32:41.052Z,21.03
2019-02-27T15:35:13.054Z,15.87
2019-02-27T15:37:45.122Z,14.40
2019-02-27T15:40:19.174Z,18.60
2019-02-27T15:42:49.649Z,16.93
2019-02-27T15:45:21.244Z,13.93
2019-02-27T15:47:51.700Z,17.17
2019-02-27T15:50:23.677Z,19.63
2019-02-27T15:52:54.380Z,17.97
2019-02-27T15:55:24.906Z,19.20
2019-02-27T15:57:55.395Z,16.70
2019-02-27T16:00:25.894Z,19.03
2019-02-27T16:02:56.619Z,19.83
2019-02-27T16:05:30.489Z,15.40
2019-02-27T16:07:59.428Z,14.50
2019-02-27T16:10:29.927Z,28.03
2019-02-27T16:13:01.499Z,17.10
2019-02-27T16:15:32.059Z,17.83
2019-02-27T16:18:04.732Z,17.97
2019-02-27T16:20:34.729Z,19.33
2019-02-27T16:23:05.384Z,17.90
2019-02-27T16:25:35.926Z,22.03
2019-02-27T16:28:11.175Z,17.17
2019-02-27T16:30:38.598Z,19.27
2019-02-27T16:33:09.017Z,13.70
2019-02-27T16:35:42.062Z,17.60
2019-02-27T16:38:13.080Z,18.30
2019-02-27T16:40:43.782Z,13.63
2019-02-27T16:43:14.496Z,20.93
2019-02-27T16:45:45.169Z,13.40
2019-02-27T16:48:15.597Z,15.40
2019-02-27T16:50:46.115Z,15.10
2019-02-27T16:53:19.258Z,16.53
2019-02-27T16:55:48.774Z,12.57
2019-02-27T16:58:19.205Z,15.47
2019-02-27T17:00:54.345Z,17.57
2019-02-27T17:03:22.172Z,20.97
2019-02-27T17:05:53.245Z,15.53
2019-02-27T17:08:24.128Z,12.27
2019-02-27T17:10:55.010Z,13.87
2019-02-27T17:13:26.117Z,18.57
2019-02-27T17:15:56.922Z,19.17
2019-02-27T17:18:29.088Z,15.77
2019-02-27T17:21:00.311Z,13.00
2019-02-27T17:23:31.416Z,15.53
2019-02-27T17:26:04.267Z,15.70
2019-02-27T17:28:35.208Z,15.50
2019-02-27T17:31:11.771Z,23.80
2019-02-27T17:33:39.075Z,23.23
2019-02-27T17:36:10.009Z,14.90
2019-02-27T17:38:40.763Z,11.63
2019-02-27T17:41:11.922Z,20.60
2019-02-27T17:43:42.800Z,9.57
2019-02-27T17:46:13.981Z,15.27
2019-02-27T17:48:45.969Z,14.60
2019-02-27T17:51:17.474Z,12.50
2019-02-27T17:53:48.398Z,11.27
2019-02-27T17:56:19.686Z,17.80
2019-02-27T17:58:51.510Z,11.30
2019-02-27T18:01:25.459Z,10.27
2019-02-27T18:03:55.787Z,14.57
2019-02-27T18:06:27.242Z,19.10
2019-02-27T18:08:58.338Z,12.20
2019-02-27T18:11:29.699Z,11.00
2019-02-27T18:14:00.391Z,10.03
2019-02-27T18:16:31.840Z,20.83
2019-02-27T18:19:02.794Z,15.13
2019-02-27T18:21:33.857Z,10.93
2019-02-27T18:24:05.353Z,11.67
2019-02-27T18:26:36.237Z,10.63
2019-02-27T18:29:07.648Z,10.60
2019-02-27T18:31:39.411Z,8.60
2019-02-27T18:34:10.397Z,13.43
2019-02-27T18:36:43.098Z,12.60
2019-02-27T18:39:13.575Z,12.57
2019-02-27T18:41:45.676Z,25.40
2019-02-27T18:44:17.193Z,16.13
2019-02-27T18:46:47.980Z,9.33
2019-02-27T18:49:19.337Z,13.17
2019-02-27T18:51:50.036Z,15.97
2019-02-27T18:54:22.880Z,19.37
2019-02-27T18:56:53.984Z,13.13
2019-02-27T18:59:29.364Z,8.43
2019-02-27T19:01:58.385Z,18.87
2019-02-27T19:04:29.088Z,19.87
2019-02-27T19:06:59.991Z,14.30
2019-02-27T19:09:32.452Z,13.53
2019-02-27T19:12:03.422Z,11.27
2019-02-27T19:14:36.728Z,11.10
2019-02-27T19:17:07.580Z,8.40
2019-02-27T19:19:38.475Z,12.53
2019-02-27T19:22:11.364Z,8.00
2019-02-27T19:24:42.275Z,9.90
2019-02-27T19:27:15.514Z,10.73
2019-02-27T19:29:45.385Z,13.53
2019-02-27T19:32:16.916Z,8.77
2019-02-27T19:34:48.276Z,15.87
2019-02-27T19:37:19.090Z,9.80
2019-02-27T19:39:50.390Z,13.40
2019-02-27T19:42:21.106Z,8.00
2019-02-27T19:44:52.001Z,7.30
2019-02-27T19:47:23.244Z,12.40
2019-02-27T19:49:54.397Z,13.60
2019-02-27T19:52:26.637Z,12.83
2019-02-27T19:54:59.189Z,12.33
2019-02-27T19:57:30.815Z,14.27
2019-02-27T20:00:02.543Z,10.40
2019-02-27T20:02:34.041Z,10.67
2019-02-27T20:05:05.593Z,9.37
2019-02-27T20:07:36.993Z,12.40
2019-02-27T20:10:08.935Z,11.67
2019-02-27T20:12:41.208Z,12.87
2019-02-27T20:15:14.091Z,7.90
2019-02-27T20:17:44.966Z,7.70
2019-02-27T20:20:16.990Z,12.80
2019-02-27T20:22:50.296Z,6.57
2019-02-27T20:25:21.758Z,7.53
2019-02-27T20:27:52.836Z,29.77
2019-02-27T20:30:25.086Z,15.63
2019-02-27T20:32:59.855Z,10.03
2019-02-27T20:35:30.069Z,6.97
2019-02-27T20:38:01.695Z,7.83
2019-02-27T20:40:34.229Z,16.67
2019-02-27T20:43:08.221Z,9.50
2019-02-27T20:45:40.043Z,9.13
2019-02-27T20:48:12.028Z,11.67
2019-02-27T20:50:45.181Z,6.03
2019-02-27T20:53:15.726Z,11.23
2019-02-27T20:55:46.898Z,14.10
2019-02-27T20:58:17.838Z,8.57
2019-02-27T21:00:48.647Z,6.97
2019-02-27T21:03:19.831Z,7.07
2019-02-27T21:05:51.035Z,7.40
2019-02-27T21:08:22.089Z,7.77
2019-02-27T21:10:55.446Z,19.57
2019-02-27T21:13:25.904Z,9.73
2019-02-27T21:15:56.966Z,10.10
2019-02-27T21:18:29.108Z,10.17
2019-02-27T21:21:00.946Z,10.37
2019-02-27T21:23:32.889Z,6.87
2019-02-27T21:26:03.998Z,17.90
2019-02-27T21:28:35.104Z,7.40
2019-02-27T21:31:06.092Z,6.57
2019-02-27T21:33:36.699Z,7.53
2019-02-27T21:36:07.343Z,6.90
2019-02-27T21:38:38.403Z,7.50
2019-02-27T21:41:11.838Z,9.93
2019-02-27T21:43:42.118Z,8.03
2019-02-27T21:46:12.623Z,7.30
2019-02-27T21:48:43.233Z,11.90
2019-02-27T21:51:15.948Z,5.60
2019-02-27T21:53:46.814Z,7.70
2019-02-27T21:56:18.024Z,7.53
2019-02-27T21:58:49.370Z,9.13
2019-02-27T22:01:21.997Z,7.07
2019-02-27T22:03:52.100Z,11.37
2019-02-27T22:06:24.653Z,5.67
2019-02-27T22:08:54.911Z,7.50
2019-02-27T22:11:27.124Z,5.57
2019-02-27T22:13:58.375Z,17.70
2019-02-27T22:16:30.424Z,7.03
2019-02-27T22:19:01.023Z,8.17
2019-02-27T22:21:34.079Z,5.93
2019-02-27T22:24:03.678Z,15.93
2019-02-27T22:26:37.377Z,5.07
2019-02-27T22:29:06.381Z,6.03
2019-02-27T22:31:40.270Z,7.57
2019-02-27T22:34:09.082Z,11.23
2019-02-27T22:36:39.621Z,5.97
2019-02-27T22:39:10.080Z,6.60
2019-02-27T22:41:41.528Z,7.77
2019-02-27T22:44:13.859Z,9.07
2019-02-27T22:46:47.847Z,7.67
2019-02-27T22:49:16.814Z,6.70
2019-02-27T22:51:48.342Z,7.00
2019-02-27T22:54:18.951Z,4.20
2019-02-27T22:56:51.530Z,8.73
2019-02-27T22:59:21.781Z,6.13
2019-02-27T23:01:56.350Z,7.80
2019-02-27T23:04:29.860Z,5.30
2019-02-27T23:06:59.448Z,8.33
2019-02-27T23:09:30.247Z,6.70
2019-02-27T23:12:00.734Z,5.43
2019-02-27T23:14:31.180Z,11.70
2019-02-27T23:17:01.631Z,6.87
2019-02-27T23:19:32.004Z,4.37
2019-02-27T23:22:02.623Z,7.77
2019-02-27T23:24:33.073Z,4.60
2019-02-27T23:27:03.495Z,5.57
2019-02-27T23:29:34.030Z,3.53
2019-02-27T23:32:04.456Z,2.80
2019-02-27T23:34:34.867Z,4.70
2019-02-27T23:37:05.309Z,7.57
2019-02-27T23:39:35.785Z,5.70
2019-02-27T23:42:06.443Z,6.20
2019-02-27T23:44:38.791Z,13.87
2019-02-27T23:47:09.042Z,5.73
2019-02-27T23:49:40.259Z,9.47
2019-02-27T23:52:10.803Z,6.37
2019-02-27T23:54:41.190Z,7.17
2019-02-27T23:57:11.608Z,4.40
2019-02-27T23:59:42.021Z,10.93
